createdAt,value
2022-10-29T00:00:59.934Z,17.74
2022-10-29T00:03:27.050Z,18.01
2022-10-29T00:05:57.753Z,17.67
2022-10-29T00:08:25.065Z,17.93
2022-10-29T00:10:52.016Z,18.13
2022-10-29T00:13:18.992Z,18.19
2022-10-29T00:15:45.819Z,18.05
2022-10-29T00:18:12.734Z,18.02
2022-10-29T00:20:39.603Z,16.62
2022-10-29T00:23:06.416Z,17.95
2022-10-29T00:25:33.290Z,17.57
2022-10-29T00:28:00.255Z,17.59
2022-10-29T00:30:27.129Z,17.46
2022-10-29T00:32:54.353Z,17.85
2022-10-29T00:35:21.417Z,17.58
2022-10-29T00:37:48.311Z,17.93
2022-10-29T00:40:15.258Z,17.84
2022-10-29T00:42:42.126Z,17.92
2022-10-29T00:45:18.098Z,18.15
2022-10-29T00:47:45.192Z,18.60
2022-10-29T00:50:14.112Z,18.74
2022-10-29T00:52:45.085Z,18.79
2022-10-29T00:55:15.877Z,18.47
2022-10-29T00:57:48.839Z,18.96
2022-10-29T01:00:17.516Z,19.05
2022-10-29T01:02:45.895Z,19.16
2022-10-29T01:05:19.422Z,19.06
2022-10-29T01:07:46.323Z,18.58
2022-10-29T01:10:13.567Z,18.86
2022-10-29T01:12:55.877Z,18.64
2022-10-29T01:15:48.047Z,18.59
2022-10-29T01:18:18.419Z,18.00
2022-10-29T01:21:17.689Z,18.27
2022-10-29T01:24:12.509Z,17.83
2022-10-29T01:27:07.301Z,18.37
2022-10-29T01:29:43.267Z,18.70
2022-10-29T01:32:15.700Z,18.89
2022-10-29T01:34:48.229Z,19.32
2022-10-29T01:37:22.695Z,19.28
2022-10-29T01:39:59.277Z,19.18
2022-10-29T01:42:40.008Z,18.89
2022-10-29T01:45:33.314Z,19.08
2022-10-29T01:48:05.040Z,18.94
2022-10-29T01:50:32.994Z,19.14
2022-10-29T01:53:00.895Z,18.81
2022-10-29T01:55:35.474Z,19.10
2022-10-29T01:58:05.556Z,19.07
2022-10-29T02:00:58.895Z,18.55
2022-10-29T02:03:39.799Z,19.04
2022-10-29T02:06:25.570Z,19.59
2022-10-29T02:09:04.607Z,19.69
2022-10-29T02:11:38.954Z,19.61
2022-10-29T02:14:15.910Z,18.52
2022-10-29T02:16:42.908Z,19.11
2022-10-29T02:19:09.772Z,19.34
2022-10-29T02:21:36.595Z,19.30
2022-10-29T02:24:03.483Z,19.74
2022-10-29T02:26:30.306Z,19.19
2022-10-29T02:28:57.197Z,19.31
2022-10-29T02:31:24.042Z,18.92
2022-10-29T02:33:50.943Z,19.78
2022-10-29T02:36:17.807Z,20.00
2022-10-29T02:38:44.638Z,19.94
2022-10-29T02:41:11.470Z,19.53
2022-10-29T02:43:38.317Z,19.47
2022-10-29T02:46:16.391Z,19.46
2022-10-29T02:48:43.286Z,19.05
2022-10-29T02:51:10.590Z,18.28
2022-10-29T02:53:37.461Z,18.19
2022-10-29T02:56:05.441Z,18.90
2022-10-29T02:58:32.279Z,18.52
2022-10-29T03:00:59.157Z,17.89
2022-10-29T03:03:26.144Z,18.87
2022-10-29T03:05:53.443Z,18.52
2022-10-29T03:08:20.375Z,17.89
2022-10-29T03:10:47.283Z,18.14
2022-10-29T03:13:14.972Z,18.47
2022-10-29T03:15:45.049Z,18.17
2022-10-29T03:18:12.239Z,17.78
2022-10-29T03:20:39.328Z,17.91
2022-10-29T03:23:06.229Z,17.91
2022-10-29T03:25:33.114Z,17.63
2022-10-29T03:28:00.075Z,17.88
2022-10-29T03:30:26.961Z,18.01
2022-10-29T03:32:54.147Z,18.32
2022-10-29T03:35:21.552Z,17.84
2022-10-29T03:37:52.474Z,18.24
2022-10-29T03:40:19.941Z,18.15
2022-10-29T03:42:46.921Z,18.12
2022-10-29T03:45:14.558Z,17.93
2022-10-29T03:47:41.454Z,17.79
2022-10-29T03:50:09.052Z,17.81
2022-10-29T03:52:35.972Z,17.48
2022-10-29T03:55:02.862Z,17.12
2022-10-29T03:57:29.795Z,17.24
2022-10-29T03:59:56.648Z,16.73
2022-10-29T04:02:24.550Z,16.81
2022-10-29T04:04:51.546Z,16.93
2022-10-29T04:07:18.713Z,16.96
2022-10-29T04:09:45.519Z,16.34
2022-10-29T04:12:12.358Z,16.68
2022-10-29T04:14:44.475Z,16.90
2022-10-29T04:17:12.938Z,17.12
2022-10-29T04:19:39.819Z,17.38
2022-10-29T04:30:27.573Z,17.74
2022-10-29T04:32:58.897Z,17.70
2022-10-29T04:35:27.543Z,17.48
2022-10-29T04:37:57.992Z,17.19
2022-10-29T04:40:25.217Z,17.27
2022-10-29T04:42:52.169Z,17.53
2022-10-29T04:45:19.167Z,17.98
2022-10-29T04:47:46.324Z,18.00
2022-10-29T04:50:13.653Z,17.61
2022-10-29T04:52:41.166Z,17.69
2022-10-29T04:55:08.517Z,18.35
2022-10-29T04:57:35.367Z,17.94
2022-10-29T05:00:02.335Z,17.49
2022-10-29T05:02:29.199Z,17.21
2022-10-29T05:04:56.191Z,17.63
2022-10-29T05:07:23.042Z,17.70
2022-10-29T05:09:49.899Z,17.32
2022-10-29T05:12:16.740Z,17.20
2022-10-29T05:14:43.594Z,16.73
2022-10-29T05:17:10.428Z,17.72
2022-10-29T05:19:37.300Z,17.58
2022-10-29T05:22:04.335Z,17.34
2022-10-29T05:24:31.167Z,17.76
2022-10-29T05:26:57.997Z,17.14
2022-10-29T05:29:24.840Z,17.54
2022-10-29T05:31:54.015Z,16.91
2022-10-29T05:34:21.708Z,16.20
2022-10-29T05:36:48.889Z,16.49
2022-10-29T05:39:15.983Z,17.14
2022-10-29T05:41:42.969Z,17.11
2022-10-29T05:44:09.835Z,16.71
2022-10-29T05:46:36.722Z,17.08
2022-10-29T05:49:04.096Z,16.10
2022-10-29T05:51:30.970Z,16.52
2022-10-29T05:53:57.819Z,17.62
2022-10-29T05:56:24.669Z,15.79
2022-10-29T05:58:51.719Z,16.91
2022-10-29T06:01:19.970Z,16.43
2022-10-29T06:03:47.521Z,17.20
2022-10-29T06:06:14.608Z,17.59
2022-10-29T06:08:41.654Z,17.77
2022-10-29T06:11:08.597Z,17.49
2022-10-29T06:13:35.549Z,16.31
2022-10-29T06:16:02.570Z,16.82
2022-10-29T06:18:29.775Z,17.45
2022-10-29T06:21:00.705Z,17.87
2022-10-29T06:23:28.512Z,18.21
2022-10-29T06:25:55.424Z,18.14
2022-10-29T06:28:22.276Z,18.29
2022-10-29T06:30:50.475Z,18.11
2022-10-29T06:33:18.808Z,17.86
2022-10-29T06:35:45.737Z,17.80
2022-10-29T06:38:12.848Z,17.67
2022-10-29T06:40:40.675Z,17.23
2022-10-29T06:43:10.090Z,17.14
2022-10-29T06:45:37.130Z,17.41
2022-10-29T06:48:05.644Z,17.38
2022-10-29T06:50:32.525Z,18.17
2022-10-29T06:53:06.818Z,17.24
2022-10-29T06:55:34.471Z,17.53
2022-10-29T06:58:09.484Z,18.38
2022-10-29T07:00:36.475Z,18.58
2022-10-29T07:03:06.400Z,17.90
2022-10-29T07:05:33.607Z,17.98
2022-10-29T07:08:01.336Z,17.65
2022-10-29T07:10:30.284Z,17.72
2022-10-29T07:12:57.165Z,17.22
2022-10-29T07:15:27.497Z,17.31
2022-10-29T07:18:02.994Z,17.54
2022-10-29T07:20:33.404Z,17.82
2022-10-29T07:23:03.143Z,18.06
2022-10-29T07:25:31.063Z,17.67
2022-10-29T07:28:20.919Z,17.58
2022-10-29T07:30:48.693Z,17.89
2022-10-29T07:33:16.589Z,17.15
2022-10-29T07:35:44.842Z,17.50
2022-10-29T07:38:12.837Z,18.07
2022-10-29T07:40:40.704Z,18.12
2022-10-29T07:43:08.785Z,18.11
2022-10-29T07:45:35.634Z,19.10
2022-10-29T07:48:04.892Z,18.55
2022-10-29T07:50:32.331Z,18.84
2022-10-29T07:53:03.018Z,18.56
2022-10-29T07:58:04.125Z,18.12
2022-10-29T08:00:32.779Z,18.98
2022-10-29T08:02:59.675Z,19.25
2022-10-29T08:05:27.709Z,19.43
2022-10-29T08:07:55.712Z,19.05
2022-10-29T08:10:24.245Z,18.88
2022-10-29T08:12:56.638Z,18.73
2022-10-29T08:15:24.121Z,18.73
2022-10-29T08:17:51.225Z,18.82
2022-10-29T08:20:18.499Z,19.01
2022-10-29T08:22:45.391Z,18.92
2022-10-29T08:25:12.758Z,18.74
2022-10-29T08:27:39.694Z,18.59
2022-10-29T08:30:07.643Z,19.02
2022-10-29T08:32:34.935Z,18.64
2022-10-29T08:35:02.365Z,18.47
2022-10-29T08:37:30.117Z,18.56
2022-10-29T08:39:56.987Z,18.91
2022-10-29T08:42:36.670Z,19.23
2022-10-29T08:45:12.779Z,18.75
2022-10-29T08:47:55.321Z,18.77
2022-10-29T08:50:24.679Z,18.41
2022-10-29T08:52:58.752Z,18.48
2022-10-29T08:55:38.749Z,18.51
2022-10-29T08:58:31.256Z,18.47
2022-10-29T09:00:58.623Z,18.84
2022-10-29T09:03:29.749Z,19.22
2022-10-29T09:06:10.622Z,18.96
2022-10-29T09:09:05.222Z,18.78
2022-10-29T09:11:59.767Z,18.29
2022-10-29T09:14:33.441Z,18.91
2022-10-29T09:17:21.388Z,18.56
2022-10-29T09:19:48.145Z,17.97
2022-10-29T09:22:24.201Z,17.46
2022-10-29T09:24:54.084Z,17.63
2022-10-29T09:27:25.149Z,17.95
2022-10-29T09:30:08.293Z,18.38
2022-10-29T09:32:53.308Z,18.47
2022-10-29T09:35:20.497Z,19.29
2022-10-29T09:37:55.239Z,19.21
2022-10-29T09:40:31.001Z,19.09
2022-10-29T09:42:59.867Z,19.16
2022-10-29T09:45:41.185Z,19.36
2022-10-29T09:48:35.428Z,19.53
2022-10-29T09:51:37.803Z,19.46
2022-10-29T09:54:04.940Z,19.11
2022-10-29T09:56:31.925Z,19.36
2022-10-29T09:59:22.869Z,19.23
2022-10-29T10:01:49.908Z,19.27
2022-10-29T10:04:41.381Z,19.40
2022-10-29T10:07:12.880Z,18.88
2022-10-29T10:09:59.442Z,18.92
2022-10-29T10:12:27.334Z,19.25
2022-10-29T10:15:05.207Z,19.63
2022-10-29T10:17:55.725Z,19.29
2022-10-29T10:20:44.387Z,19.11
2022-10-29T10:23:29.218Z,20.50
2022-10-29T10:26:03.723Z,19.77
2022-10-29T10:28:35.580Z,19.85
2022-10-29T10:31:11.119Z,20.20
2022-10-29T10:33:49.639Z,20.23
2022-10-29T10:36:16.966Z,20.23
2022-10-29T10:38:48.062Z,19.83
2022-10-29T10:41:16.815Z,19.26
2022-10-29T10:43:45.227Z,19.82
2022-10-29T10:46:22.725Z,19.54
2022-10-29T10:49:06.635Z,20.06
2022-10-29T10:51:34.810Z,19.96
2022-10-29T10:54:05.526Z,19.29
2022-10-29T10:56:32.905Z,19.68
2022-10-29T10:59:03.385Z,19.98
2022-10-29T11:01:33.040Z,19.77
2022-10-29T11:04:09.995Z,19.74
2022-10-29T11:06:40.414Z,19.49
2022-10-29T11:09:35.859Z,19.93
2022-10-29T11:12:09.944Z,20.13
2022-10-29T11:14:46.664Z,19.88
2022-10-29T11:17:40.117Z,20.23
2022-10-29T11:20:32.457Z,20.25
2022-10-29T11:23:29.184Z,20.55
2022-10-29T11:26:37.920Z,20.56
2022-10-29T11:29:25.996Z,21.21
2022-10-29T11:32:00.894Z,21.55
2022-10-29T11:34:42.836Z,21.14
2022-10-29T11:37:26.321Z,20.37
2022-10-29T11:40:02.111Z,20.25
2022-10-29T11:42:29.030Z,19.79
2022-10-29T11:44:58.628Z,20.12
2022-10-29T11:47:29.940Z,20.27
2022-10-29T11:50:06.682Z,20.53
2022-10-29T11:52:39.692Z,21.14
2022-10-29T11:55:31.158Z,21.46
2022-10-29T11:58:10.278Z,21.37
2022-10-29T12:01:25.160Z,21.81
2022-10-29T12:04:04.094Z,21.75
2022-10-29T12:07:11.231Z,21.73
2022-10-29T12:10:08.926Z,21.78
2022-10-29T12:12:53.116Z,21.56
2022-10-29T12:15:26.955Z,21.09
2022-10-29T12:18:08.929Z,20.79
2022-10-29T12:20:55.302Z,20.96
2022-10-29T12:23:28.826Z,20.62
2022-10-29T12:26:00.255Z,20.49
2022-10-29T12:28:45.932Z,21.09
2022-10-29T12:31:21.200Z,20.74
2022-10-29T12:34:26.239Z,21.04
2022-10-29T12:37:12.150Z,21.08
2022-10-29T12:39:49.605Z,20.58
2022-10-29T12:42:17.906Z,20.85
2022-10-29T12:45:03.538Z,19.96
2022-10-29T12:47:40.786Z,19.85
2022-10-29T12:50:19.693Z,19.59
2022-10-29T12:52:53.881Z,20.08
2022-10-29T12:55:21.376Z,19.77
2022-10-29T12:57:48.247Z,19.72
2022-10-29T13:00:23.996Z,20.48
2022-10-29T13:02:55.483Z,20.58
2022-10-29T13:05:36.405Z,20.55
2022-10-29T13:08:03.191Z,20.74
2022-10-29T13:10:33.098Z,20.67
2022-10-29T13:12:59.953Z,20.67
2022-10-29T13:15:32.147Z,20.72
2022-10-29T13:18:05.242Z,21.10
2022-10-29T13:20:37.969Z,20.97
2022-10-29T13:23:24.765Z,20.85
2022-10-29T13:25:52.975Z,20.96
2022-10-29T13:28:19.730Z,20.14
2022-10-29T13:30:54.411Z,19.52
2022-10-29T13:33:24.291Z,18.77
2022-10-29T13:36:01.783Z,18.57
2022-10-29T13:39:04.603Z,18.62
2022-10-29T13:41:43.195Z,18.90
2022-10-29T13:44:26.547Z,19.82
2022-10-29T13:47:01.225Z,20.47
2022-10-29T13:49:32.945Z,20.19
2022-10-29T13:52:13.247Z,19.44
2022-10-29T13:54:59.062Z,18.83
2022-10-29T13:57:32.902Z,18.87
2022-10-29T14:00:18.510Z,18.83
2022-10-29T14:02:54.326Z,19.02
2022-10-29T14:05:23.501Z,19.39
2022-10-29T14:07:59.118Z,19.65
2022-10-29T14:10:35.844Z,18.92
2022-10-29T14:13:30.640Z,19.10
2022-10-29T14:16:06.691Z,19.23
2022-10-29T14:18:36.698Z,19.28
2022-10-29T14:21:05.862Z,19.29
2022-10-29T14:23:33.406Z,19.11
2022-10-29T14:26:04.067Z,18.83
2022-10-29T14:28:32.813Z,19.08
2022-10-29T14:30:59.598Z,18.94
2022-10-29T14:33:31.904Z,19.18
2022-10-29T14:36:23.313Z,19.19
2022-10-29T14:38:53.527Z,19.33
2022-10-29T14:41:20.782Z,19.28
2022-10-29T14:44:02.152Z,19.15
2022-10-29T14:46:30.826Z,18.95
2022-10-29T14:49:12.838Z,18.66
2022-10-29T14:51:50.945Z,18.79
2022-10-29T14:54:22.435Z,18.47
2022-10-29T14:56:53.303Z,18.58
2022-10-29T14:59:25.015Z,18.49
2022-10-29T15:02:05.773Z,18.43
2022-10-29T15:04:49.934Z,18.40
2022-10-29T15:07:35.472Z,18.50
2022-10-29T15:10:09.422Z,18.39
2022-10-29T15:12:38.488Z,18.82
2022-10-29T15:15:22.858Z,19.07
2022-10-29T15:18:07.843Z,19.14
2022-10-29T15:20:45.713Z,18.43
2022-10-29T15:23:24.698Z,17.64
2022-10-29T15:25:54.501Z,18.36
2022-10-29T15:28:26.843Z,18.48
2022-10-29T15:30:54.432Z,17.65
2022-10-29T15:33:22.941Z,18.06
2022-10-29T15:35:53.790Z,17.79
2022-10-29T15:38:35.615Z,18.09
2022-10-29T15:41:08.414Z,18.49
2022-10-29T15:43:49.948Z,18.25
2022-10-29T15:46:24.254Z,18.36
2022-10-29T15:48:51.250Z,18.17
2022-10-29T15:51:19.209Z,18.00
2022-10-29T15:53:46.060Z,17.80
2022-10-29T15:56:13.757Z,17.14
2022-10-29T15:58:40.861Z,17.47
2022-10-29T16:01:08.366Z,17.57
2022-10-29T16:03:39.349Z,17.68
2022-10-29T16:06:07.944Z,17.71
2022-10-29T16:08:38.461Z,17.85
2022-10-29T16:11:10.950Z,17.84
2022-10-29T16:13:37.999Z,17.80
2022-10-29T16:16:05.354Z,17.83
2022-10-29T16:18:32.206Z,17.93
2022-10-29T16:21:01.442Z,18.04
2022-10-29T16:23:28.326Z,17.99
2022-10-29T16:25:55.176Z,18.04
2022-10-29T16:28:22.050Z,18.18
2022-10-29T16:30:53.343Z,18.20
2022-10-29T16:33:20.365Z,17.90
2022-10-29T16:35:47.284Z,18.06
2022-10-29T16:38:14.234Z,18.42
2022-10-29T16:40:42.837Z,18.19
2022-10-29T16:43:09.956Z,18.62
2022-10-29T16:45:37.157Z,18.53
2022-10-29T16:48:04.118Z,18.57
2022-10-29T16:50:33.070Z,18.64
2022-10-29T16:53:01.906Z,18.79
2022-10-29T16:55:29.601Z,18.46
2022-10-29T16:57:57.120Z,18.79
2022-10-29T17:00:26.136Z,19.04
2022-10-29T17:02:53.250Z,18.59
2022-10-29T17:05:20.105Z,18.83
2022-10-29T17:07:47.018Z,19.22
2022-10-29T17:10:13.868Z,19.75
2022-10-29T17:12:40.733Z,19.20
2022-10-29T17:15:07.965Z,19.22
2022-10-29T17:17:34.826Z,18.59
2022-10-29T17:20:01.688Z,18.45
2022-10-29T17:22:28.543Z,19.11
2022-10-29T17:24:55.448Z,19.21
2022-10-29T17:27:22.369Z,18.97
2022-10-29T17:29:49.319Z,18.70
2022-10-29T17:32:16.720Z,18.93
2022-10-29T17:34:43.558Z,19.06
2022-10-29T17:37:11.485Z,19.21
2022-10-29T17:39:38.931Z,19.18
2022-10-29T17:42:05.964Z,19.47
2022-10-29T17:44:34.080Z,19.03
2022-10-29T17:47:00.991Z,19.05
2022-10-29T17:49:28.291Z,19.24
2022-10-29T17:51:55.138Z,18.76
2022-10-29T17:54:22.255Z,18.31
2022-10-29T17:56:49.295Z,18.79
2022-10-29T17:59:16.106Z,18.58
2022-10-29T18:01:44.316Z,19.25
2022-10-29T18:04:11.399Z,19.19
2022-10-29T18:06:38.234Z,19.08
2022-10-29T18:09:05.200Z,19.59
2022-10-29T18:11:32.071Z,19.45
2022-10-29T18:13:58.888Z,19.16
2022-10-29T18:16:27.751Z,18.91
2022-10-29T18:19:02.136Z,19.17
2022-10-29T18:21:29.902Z,18.69
2022-10-29T18:23:56.880Z,18.42
2022-10-29T18:26:31.975Z,18.22
2022-10-29T18:29:00.600Z,18.86
2022-10-29T18:31:30.666Z,19.04
2022-10-29T18:33:58.890Z,18.90
2022-10-29T18:36:25.852Z,19.51
2022-10-29T18:38:54.407Z,19.43
2022-10-29T18:41:21.943Z,20.11
2022-10-29T18:43:48.861Z,18.95
2022-10-29T18:46:16.106Z,19.51
2022-10-29T18:48:46.426Z,19.57
2022-10-29T18:51:21.806Z,19.52
2022-10-29T18:53:48.662Z,20.41
2022-10-29T18:56:17.874Z,19.64
2022-10-29T18:58:45.196Z,19.83
2022-10-29T19:01:14.716Z,20.30
2022-10-29T19:03:41.944Z,20.89
2022-10-29T19:06:12.630Z,20.42
2022-10-29T19:08:41.679Z,20.67
2022-10-29T19:11:10.803Z,20.41
2022-10-29T19:13:37.733Z,20.22
2022-10-29T19:16:09.621Z,20.03
2022-10-29T19:18:37.118Z,20.70
2022-10-29T19:21:09.206Z,20.85
2022-10-29T19:23:36.086Z,20.42
2022-10-29T19:26:07.548Z,20.35
2022-10-29T19:28:35.138Z,20.18
2022-10-29T19:31:06.103Z,20.70
2022-10-29T19:33:33.335Z,20.89
2022-10-29T19:36:00.899Z,20.71
2022-10-29T19:38:28.330Z,20.34
2022-10-29T19:40:58.497Z,20.60
2022-10-29T19:43:26.211Z,20.87
2022-10-29T19:45:53.534Z,20.68
2022-10-29T19:48:20.499Z,20.39
2022-10-29T19:50:53.969Z,19.85
2022-10-29T19:53:21.249Z,19.99
2022-10-29T19:55:50.633Z,19.92
2022-10-29T19:58:18.224Z,19.87
2022-10-29T20:00:45.521Z,19.60
2022-10-29T20:03:13.395Z,19.76
2022-10-29T20:05:41.139Z,20.44
2022-10-29T20:08:11.435Z,20.20
2022-10-29T20:10:41.734Z,19.84
2022-10-29T20:13:08.646Z,19.65
2022-10-29T20:15:35.520Z,19.39
2022-10-29T20:18:02.374Z,19.12
2022-10-29T20:20:29.245Z,18.99
2022-10-29T20:22:57.078Z,18.70
2022-10-29T20:25:24.374Z,18.66
2022-10-29T20:27:51.328Z,18.22
2022-10-29T20:30:18.311Z,18.65
2022-10-29T20:32:45.168Z,18.21
2022-10-29T20:35:12.019Z,17.85
2022-10-29T20:37:38.816Z,18.06
2022-10-29T20:40:06.075Z,18.01
2022-10-29T20:42:32.954Z,17.93
2022-10-29T20:44:59.814Z,17.77
2022-10-29T20:47:26.729Z,17.02
2022-10-29T20:49:53.543Z,17.50
2022-10-29T20:52:20.365Z,17.10
2022-10-29T20:54:47.248Z,17.32
2022-10-29T20:57:14.126Z,16.90
2022-10-29T20:59:42.106Z,17.06
2022-10-29T21:02:11.974Z,17.21
2022-10-29T21:04:39.292Z,17.19
2022-10-29T21:07:07.866Z,17.23
2022-10-29T21:09:34.891Z,17.16
2022-10-29T21:12:01.733Z,17.02
2022-10-29T21:14:29.768Z,16.81
2022-10-29T21:16:56.734Z,17.06
2022-10-29T21:19:24.239Z,16.73
2022-10-29T21:21:51.076Z,16.43
2022-10-29T21:24:18.313Z,16.28
2022-10-29T21:26:45.163Z,16.69
2022-10-29T21:29:11.992Z,17.00
2022-10-29T21:31:38.866Z,17.18
2022-10-29T21:34:05.738Z,17.31
2022-10-29T21:36:32.547Z,17.28
2022-10-29T21:38:59.403Z,17.30
2022-10-29T21:41:26.267Z,17.50
2022-10-29T21:43:53.282Z,18.06
2022-10-29T21:46:20.149Z,18.21
2022-10-29T21:48:47.011Z,18.43
2022-10-29T21:51:15.207Z,18.40
2022-10-29T21:53:42.026Z,18.30
2022-10-29T21:56:10.889Z,18.52
2022-10-29T21:58:37.822Z,17.77
2022-10-29T22:01:10.443Z,18.03
2022-10-29T22:03:38.935Z,18.46
2022-10-29T22:06:08.211Z,18.36
2022-10-29T22:08:35.316Z,17.97
2022-10-29T22:11:02.439Z,18.15
2022-10-29T22:13:30.225Z,17.76
2022-10-29T22:15:57.075Z,17.73
2022-10-29T22:18:24.722Z,18.05
2022-10-29T22:21:09.122Z,17.43
2022-10-29T22:23:36.217Z,17.88
2022-10-29T22:26:03.057Z,17.49
2022-10-29T22:28:29.946Z,17.26
2022-10-29T22:31:01.264Z,17.57
2022-10-29T22:33:28.854Z,17.39
2022-10-29T22:35:55.929Z,17.21
2022-10-29T22:38:22.826Z,17.34
2022-10-29T22:40:49.698Z,17.43
2022-10-29T22:43:16.566Z,17.10
2022-10-29T22:45:45.638Z,17.69
2022-10-29T22:48:12.625Z,17.87
2022-10-29T22:50:39.469Z,18.06
2022-10-29T22:53:06.365Z,18.13
2022-10-29T22:55:33.240Z,18.21
2022-10-29T22:58:00.124Z,18.45
2022-10-29T23:00:26.945Z,18.11
2022-10-29T23:02:53.796Z,17.69
2022-10-29T23:05:20.679Z,18.15
2022-10-29T23:07:47.758Z,17.51
2022-10-29T23:10:14.705Z,17.93
2022-10-29T23:12:41.569Z,17.92
2022-10-29T23:15:08.851Z,17.54
2022-10-29T23:17:35.735Z,17.22
2022-10-29T23:20:02.686Z,17.67
2022-10-29T23:22:29.545Z,17.85
2022-10-29T23:24:56.384Z,18.65
2022-10-29T23:27:23.257Z,17.89
2022-10-29T23:29:50.096Z,18.14
2022-10-29T23:32:16.950Z,17.98
2022-10-29T23:34:43.812Z,18.26
2022-10-29T23:37:10.695Z,17.82
2022-10-29T23:39:37.612Z,17.89
2022-10-29T23:42:04.633Z,18.48
2022-10-29T23:44:31.466Z,18.38
2022-10-29T23:46:58.305Z,17.76
2022-10-29T23:49:25.180Z,18.07
2022-10-29T23:51:52.073Z,18.37
2022-10-29T23:54:18.903Z,18.49
2022-10-29T23:56:45.793Z,18.05
2022-10-29T23:59:12.627Z,17.97
